Time;durP1;ratioP1;P1;durP2;ratioP2;P2;SDS_P1;SDS_P2;PMS_P1;PMS_P2;Temp;Humidity;BMP_temperature;BMP_pressure;BME280_temperature;BME280_humidity;BME280_pressure;Samples;Min_cycle;Max_cycle;Signal;HPM_P1;HPM_P2
2022/12/22 03:27:25;;;;;;;20.42;4.45;;;;;;;5.37;82.35;98877.44;5002591;28;20931;-60
2022/12/22 03:29:52;;;;;;;12.40;4.18;;;;;;;5.39;82.07;98875.75;5003419;28;20131;-56
2022/12/22 03:32:19;;;;;;;34.75;3.03;;;;;;;5.39;83.14;98883.47;4998699;28;20452;-61
2022/12/22 03:34:45;;;;;;;19.77;4.20;;;;;;;5.40;83.01;98892.88;5003248;28;20080;-57
2022/12/22 03:37:12;;;;;;;23.95;4.30;;;;;;;5.41;82.70;98880.91;5002975;28;20127;-57
2022/12/22 03:39:39;;;;;;;29.52;4.90;;;;;;;5.42;83.31;98881.72;5003731;28;20125;-59
2022/12/22 03:47:38;;;;;;;25.30;4.70;;;;;;;5.44;83.23;98882.59;5003210;28;20045;-57
2022/12/22 03:50:05;;;;;;;31.90;4.75;;;;;;;5.45;82.69;98876.59;4999612;28;20046;-58
2022/12/22 03:52:32;;;;;;;32.75;5.15;;;;;;;5.45;82.71;98879.16;5000100;28;20076;-57
2022/12/22 03:54:59;;;;;;;42.70;5.25;;;;;;;5.45;82.10;98868.91;5001990;28;20054;-58
2022/12/22 03:57:25;;;;;;;44.05;4.95;;;;;;;5.45;82.14;98877.47;4997349;28;20038;-59
2022/12/22 03:59:52;;;;;;;24.73;4.45;;;;;;;5.44;82.50;98872.31;4985782;28;20058;-60
2022/12/22 04:02:19;;;;;;;28.80;4.50;;;;;;;5.46;83.13;98870.59;4989340;28;20848;-55
2022/12/22 04:04:45;;;;;;;37.13;4.60;;;;;;;5.47;83.09;98872.34;4986455;28;20160;-60
2022/12/22 04:07:12;;;;;;;35.13;5.45;;;;;;;5.46;82.55;98865.47;4984440;28;20074;-58
2022/12/22 04:12:53;;;;;;;38.95;5.43;;;;;;;5.45;82.95;98874.03;4981221;28;20050;-58
2022/12/22 04:15:12;;;;;;;23.55;3.17;;;;;;;5.46;82.36;98871.47;4983058;28;20452;-59
2022/12/22 04:17:39;;;;;;;37.28;4.60;;;;;;;5.47;83.06;98872.34;4985434;28;20042;-58
2022/12/22 04:20:06;;;;;;;19.60;4.25;;;;;;;5.46;81.98;98862.88;4986873;28;20050;-59
2022/12/22 04:22:32;;;;;;;20.08;4.57;;;;;;;5.48;83.18;98864.63;4982584;28;20081;-59
2022/12/22 04:24:59;;;;;;;35.60;4.70;;;;;;;5.47;81.87;98862.06;4984940;28;20050;-60
2022/12/22 04:27:26;;;;;;;32.47;4.25;;;;;;;5.47;82.79;98867.19;4985749;28;20138;-61
2022/12/22 04:29:52;;;;;;;23.33;5.00;;;;;;;5.46;83.09;98865.47;4982575;28;20074;-55
2022/12/22 04:32:19;;;;;;;17.85;3.67;;;;;;;5.46;82.25;98855.19;4984899;28;20077;-58
2022/12/22 04:34:45;;;;;;;29.15;5.00;;;;;;;5.44;83.34;98862.06;4982611;28;20066;-60
2022/12/22 04:37:12;;;;;;;17.60;4.10;;;;;;;5.43;82.37;98865.50;4984919;28;20046;-59
2022/12/22 04:39:43;;;;;;;21.58;4.07;;;;;;;5.43;83.20;98857.78;4981548;28;20138;-57
2022/12/22 04:42:09;;;;;;;13.30;4.35;;;;;;;5.43;82.27;98860.34;4982797;28;20042;-60
2022/12/22 04:44:36;;;;;;;14.82;3.20;;;;;;;5.43;82.00;98865.50;4987941;28;20405;-59
2022/12/22 04:47:03;;;;;;;14.55;4.60;;;;;;;5.42;81.76;98866.31;4981223;28;20141;-58
2022/12/22 04:49:30;;;;;;;10.48;4.78;;;;;;;5.40;82.94;98872.31;4980544;28;20076;-59
2022/12/22 04:51:56;;;;;;;6.80;4.32;;;;;;;5.39;82.67;98860.34;4979590;28;20529;-58
2022/12/22 04:54:24;;;;;;;15.02;4.38;;;;;;;5.38;83.29;98858.63;4978237;28;20061;-59
2022/12/22 04:56:52;;;;;;;14.07;5.07;;;;;;;5.38;83.51;98868.88;4980005;28;20061;-59
2022/12/22 04:59:18;;;;;;;9.55;2.83;;;;;;;5.37;82.86;98862.03;4977137;28;20598;-61
2022/12/22 05:01:45;;;;;;;12.00;5.50;;;;;;;5.37;82.35;98864.63;4978338;28;20085;-62
2022/12/22 05:04:12;;;;;;;9.90;4.82;;;;;;;5.37;83.00;98862.03;4985471;28;20080;-59
2022/12/22 05:06:42;;;;;;;8.00;4.43;;;;;;;5.36;82.66;98859.47;4986179;28;20046;-62
2022/12/22 05:09:10;;;;;;;11.98;4.15;;;;;;;5.35;82.39;98863.78;4986175;28;20081;-59
2022/12/22 05:11:37;;;;;;;13.63;5.22;;;;;;;5.37;82.80;98868.91;4984185;28;20097;-60
2022/12/22 05:14:04;;;;;;;11.30;4.72;;;;;;;5.35;82.90;98863.78;4984890;28;20054;-59
2022/12/22 05:16:32;;;;;;;9.65;4.65;;;;;;;5.36;82.87;98868.03;4983974;28;20051;-58
2022/12/22 05:18:59;;;;;;;10.25;4.82;;;;;;;5.34;82.55;98862.03;4988817;28;20137;-56
2022/12/22 05:21:26;;;;;;;15.30;4.78;;;;;;;5.33;82.70;98852.63;4979280;28;20105;-59
2022/12/22 05:23:53;;;;;;;10.35;4.47;;;;;;;5.32;82.20;98863.78;4986406;28;20167;-56
2022/12/22 05:26:19;;;;;;;9.85;4.53;;;;;;;5.32;83.33;98857.78;4986451;28;20065;-59
2022/12/22 05:28:46;;;;;;;11.60;3.50;;;;;;;5.31;83.17;98856.94;4984774;28;20482;-61
2022/12/22 05:31:18;;;;;;;6.53;3.85;;;;;;;5.31;81.95;98867.19;4982500;28;20137;-57
2022/12/22 05:33:45;;;;;;;14.02;3.80;;;;;;;5.27;83.03;98865.50;4988919;28;20133;-58
2022/12/22 05:36:12;;;;;;;13.40;4.70;;;;;;;5.25;81.96;98857.78;4981277;28;20126;-58
2022/12/22 05:38:39;;;;;;;11.88;4.82;;;;;;;5.24;83.18;98860.34;4979636;28;20039;-60
2022/12/22 05:41:06;;;;;;;7.57;3.85;;;;;;;5.23;82.97;98867.19;4983656;28;20097;-58
2022/12/22 05:43:34;;;;;;;8.30;4.40;;;;;;;5.24;82.00;98866.31;4987657;28;20142;-60
2022/12/22 05:46:06;;;;;;;10.35;4.07;;;;;;;5.26;82.31;98863.75;4983334;28;20097;-62
2022/12/22 05:48:33;;;;;;;11.57;4.47;;;;;;;5.26;83.07;98868.91;4987790;28;20082;-60
2022/12/22 05:51:07;;;;;;;8.40;4.38;;;;;;;5.28;83.08;98868.03;4982109;28;20074;-60
2022/12/22 05:53:35;;;;;;;10.85;4.63;;;;;;;5.31;83.16;98871.47;4996701;28;20497;-58
2022/12/22 05:56:01;;;;;;;7.55;3.42;;;;;;;5.31;82.72;98869.78;4987329;28;20038;-59
2022/12/22 05:58:28;;;;;;;6.57;3.25;;;;;;;5.33;82.05;98870.59;4990257;28;20050;-59
2022/12/22 06:00:57;;;;;;;11.43;3.30;;;;;;;5.34;83.16;98872.31;4983781;28;20046;-60
2022/12/22 06:03:25;;;;;;;5.97;1.92;;;;;;;5.37;82.39;98866.34;4984072;28;20046;-60
2022/12/22 06:05:53;;;;;;;8.25;2.13;;;;;;;5.39;82.23;98865.47;4983826;28;20419;-60
2022/12/22 06:08:20;;;;;;;11.38;3.60;;;;;;;5.42;83.00;98858.63;4987097;28;20518;-59
2022/12/22 06:10:47;;;;;;;11.07;4.05;;;;;;;5.45;83.38;98874.03;4980182;28;20057;-60
2022/12/22 06:13:14;;;;;;;7.00;3.75;;;;;;;5.48;82.90;98874.03;4988605;28;20050;-57
2022/12/22 06:15:40;;;;;;;14.73;4.30;;;;;;;5.50;82.82;98873.16;4986866;28;20050;-61
2022/12/22 06:18:07;;;;;;;12.02;4.93;;;;;;;5.54;82.70;98871.44;4983580;28;20050;-59
2022/12/22 06:20:34;;;;;;;7.10;3.83;;;;;;;5.56;82.24;98872.31;4983402;28;20097;-58
2022/12/22 06:23:01;;;;;;;7.90;4.22;;;;;;;5.57;82.17;98874.00;4980800;28;20212;-57
2022/12/22 06:25:27;;;;;;;8.00;5.05;;;;;;;5.59;82.80;98882.59;4978513;28;20050;-59
2022/12/22 06:27:54;;;;;;;9.15;4.72;;;;;;;5.57;83.57;98879.16;4977665;28;20061;-58
2022/12/22 06:30:21;;;;;;;40.55;16.38;;;;;;;5.58;82.30;98864.59;4979543;28;20085;-62
2022/12/22 06:32:59;;;;;;;21.38;11.15;;;;;;;5.55;82.66;98868.03;4977203;28;20059;-60
2022/12/22 06:35:26;;;;;;;33.80;15.27;;;;;;;5.51;83.51;98863.75;4976754;28;20145;-58
2022/12/22 06:37:53;;;;;;;15.82;7.07;;;;;;;5.49;82.07;98876.59;4979110;28;20461;-58
2022/12/22 06:40:19;;;;;;;23.40;13.88;;;;;;;5.46;82.04;98871.47;4978080;28;20073;-59
2022/12/22 06:45:38;;;;;;;27.38;9.45;;;;;;;5.40;82.08;98882.59;4992111;28;20049;-58
2022/12/22 06:48:06;;;;;;;15.32;4.97;;;;;;;5.36;82.83;98886.03;4978020;28;20061;-59
2022/12/22 06:50:34;;;;;;;17.25;5.43;;;;;;;5.33;82.75;98875.75;4990571;28;20142;-62
2022/12/22 06:53:03;;;;;;;9.75;3.30;;;;;;;5.30;82.75;98880.88;4976032;28;20046;-59
2022/12/22 06:55:29;;;;;;;11.38;2.63;;;;;;;5.25;81.71;98878.34;4982496;28;20057;-61
2022/12/22 06:57:56;;;;;;;9.63;5.07;;;;;;;5.22;81.93;98885.16;4986682;28;20100;-58
2022/12/22 07:00:23;;;;;;;8.52;2.53;;;;;;;5.19;82.20;98882.59;4980094;28;20725;-60
2022/12/22 07:02:50;;;;;;;8.98;4.35;;;;;;;5.13;82.18;98876.59;4985125;28;20054;-59
2022/12/22 07:05:17;;;;;;;7.47;3.78;;;;;;;5.09;82.20;98872.31;4979083;28;20078;-59
2022/12/22 07:07:44;;;;;;;7.07;4.13;;;;;;;5.06;81.81;98874.88;4978873;28;20050;-59
2022/12/22 07:10:10;;;;;;;7.53;3.25;;;;;;;5.03;82.92;98877.44;4981157;28;20061;-62
2022/12/22 07:12:37;;;;;;;9.73;4.10;;;;;;;4.99;82.26;98870.59;4985054;28;20046;-58
2022/12/22 07:15:04;;;;;;;8.10;1.88;;;;;;;4.93;82.50;98868.88;4978567;28;20046;-57
2022/12/22 07:17:31;;;;;;;6.78;3.83;;;;;;;4.92;82.36;98868.88;4988968;28;20049;-59
2022/12/22 07:19:58;;;;;;;7.75;3.90;;;;;;;4.91;82.40;98872.31;4977019;28;20129;-59
2022/12/22 07:22:25;;;;;;;5.18;2.20;;;;;;;4.89;82.72;98875.72;4979277;28;20501;-60
2022/12/22 07:24:56;;;;;;;7.70;4.05;;;;;;;4.86;82.43;98883.41;4983739;28;20046;-57
2022/12/22 07:27:23;;;;;;;7.07;3.55;;;;;;;4.85;82.31;98883.41;4979658;28;20053;-61
2022/12/22 07:29:49;;;;;;;8.23;3.58;;;;;;;4.80;82.66;98890.25;4997125;28;20058;-61
2022/12/22 07:32:16;;;;;;;6.15;3.55;;;;;;;4.73;82.09;98894.53;4979997;28;20143;-58
2022/12/22 07:34:43;;;;;;;9.23;3.85;;;;;;;4.67;82.25;98887.66;4988750;28;20082;-62
2022/12/22 07:37:12;;;;;;;7.40;4.22;;;;;;;4.58;81.95;98893.63;4981127;28;20043;-60
2022/12/22 07:39:39;;;;;;;8.52;4.47;;;;;;;4.53;82.09;98897.88;4981912;28;20061;-59
2022/12/22 07:44:52;;;;;;;5.72;3.83;;;;;;;4.39;82.14;98896.97;4986390;28;20049;-58
2022/12/22 07:47:18;;;;;;;5.55;3.75;;;;;;;4.37;81.98;98879.88;4992148;28;20564;-56
2022/12/22 07:52:32;;;;;;;6.43;4.13;;;;;;;4.28;82.35;98886.66;4990899;28;20051;-62
2022/12/22 07:54:58;;;;;;;6.20;3.60;;;;;;;4.28;82.39;98882.38;4988954;28;20061;-59
2022/12/22 07:57:25;;;;;;;5.90;3.45;;;;;;;4.28;82.63;98882.38;4986382;28;20042;-56
2022/12/22 07:59:52;;;;;;;6.70;3.45;;;;;;;4.29;82.55;98868.72;4984327;28;20113;-59
2022/12/22 08:02:19;;;;;;;5.55;3.88;;;;;;;4.31;82.28;98871.28;4981492;28;20279;-59
2022/12/22 08:04:46;;;;;;;5.97;3.63;;;;;;;4.34;82.64;98867.03;4983350;28;20260;-60
2022/12/22 08:07:13;;;;;;;7.43;3.50;;;;;;;4.37;82.36;98874.75;4987476;28;20077;-61
2022/12/22 08:09:39;;;;;;;6.95;4.53;;;;;;;4.36;82.11;98864.50;4979661;28;20172;-59
2022/12/22 08:12:06;;;;;;;7.55;4.28;;;;;;;4.36;81.91;98865.31;4986333;28;20131;-57
2022/12/22 08:14:32;;;;;;;6.00;1.88;;;;;;;4.36;82.19;98867.91;4984987;28;20386;-60
2022/12/22 08:16:59;;;;;;;6.63;2.97;;;;;;;4.35;81.99;98873.00;4982119;28;20109;-59
2022/12/22 08:19:26;;;;;;;6.00;4.07;;;;;;;4.33;82.19;98864.47;4988004;28;20092;-57
2022/12/22 08:21:52;;;;;;;4.95;2.85;;;;;;;4.31;82.08;98872.16;4986724;28;20133;-62
2022/12/22 08:24:20;;;;;;;5.60;3.35;;;;;;;4.29;82.01;98866.16;4988173;28;20447;-61
2022/12/22 08:26:50;;;;;;;7.07;3.63;;;;;;;4.30;82.32;98867.88;4987137;28;20827;-57
2022/12/22 08:29:23;;;;;;;6.28;3.40;;;;;;;4.31;81.97;98856.78;4985058;28;20104;-57
2022/12/22 08:31:49;;;;;;;9.43;4.30;;;;;;;4.34;82.50;98854.22;4985906;28;20108;-57
2022/12/22 08:34:16;;;;;;;5.93;4.20;;;;;;;4.35;82.62;98853.38;4981164;28;20056;-61
2022/12/22 08:36:48;;;;;;;8.55;4.15;;;;;;;4.36;81.72;98852.50;4983237;28;20081;-61
2022/12/22 08:39:15;;;;;;;5.82;3.58;;;;;;;4.40;81.78;98855.09;4981450;28;20100;-58
2022/12/22 08:41:50;;;;;;;12.88;3.33;;;;;;;4.40;82.56;98849.97;4997989;28;20112;-56
2022/12/22 08:44:21;;;;;;;7.22;3.65;;;;;;;4.42;81.89;98861.09;4984259;28;20509;-54
2022/12/22 08:46:48;;;;;;;7.75;3.92;;;;;;;4.44;81.62;98851.69;4982284;28;20064;-58
2022/12/22 08:49:15;;;;;;;8.27;3.28;;;;;;;4.46;82.32;98855.13;4987826;28;20129;-60
2022/12/22 08:51:42;;;;;;;7.90;3.70;;;;;;;4.50;82.79;98851.72;4992468;28;20076;-62
2022/12/22 08:54:09;;;;;;;7.78;4.13;;;;;;;4.55;82.27;98854.25;4991229;28;20133;-54
2022/12/22 08:56:36;;;;;;;10.10;4.40;;;;;;;4.58;81.92;98850.03;4998470;28;20050;-56
2022/12/22 08:59:06;;;;;;;13.52;5.22;;;;;;;4.62;82.34;98856.00;4984466;28;20074;-57
2022/12/22 09:01:35;;;;;;;13.80;6.70;;;;;;;4.68;82.82;98856.03;4985806;28;20058;-58
2022/12/22 09:04:03;;;;;;;15.07;6.38;;;;;;;4.72;82.31;98855.19;4976953;28;20081;-59
2022/12/22 09:06:31;;;;;;;13.07;3.20;;;;;;;4.77;83.26;98865.44;4987434;28;20439;-56
2022/12/22 09:09:08;;;;;;;9.85;4.82;;;;;;;4.83;83.06;98860.31;4987638;28;20050;-61
2022/12/22 09:11:35;;;;;;;11.32;3.42;;;;;;;4.87;82.54;98867.16;4987188;28;20446;-56
2022/12/22 09:14:02;;;;;;;11.65;3.95;;;;;;;4.89;83.30;98850.06;4991694;28;20143;-57
2022/12/22 09:16:31;;;;;;;7.68;2.25;;;;;;;4.94;82.91;98857.78;4990426;28;20387;-57
2022/12/22 09:18:58;;;;;;;10.73;4.15;;;;;;;4.97;82.58;98856.94;4985195;28;20068;-58
2022/12/22 09:21:25;;;;;;;10.25;4.90;;;;;;;5.00;83.88;98862.06;4983923;28;20058;-57
2022/12/22 09:23:53;;;;;;;7.95;3.78;;;;;;;5.06;82.98;98862.03;4986900;28;20133;-59
2022/12/22 09:26:22;;;;;;;14.48;5.25;;;;;;;5.10;83.44;98856.06;4985606;28;20089;-59
2022/12/22 09:28:49;;;;;;;6.28;3.47;;;;;;;5.16;83.37;98852.63;4977884;28;20066;-57
2022/12/22 09:31:17;;;;;;;14.25;5.03;;;;;;;5.22;83.71;98854.34;4976604;28;20058;-57
2022/12/22 09:33:44;;;;;;;8.40;4.60;;;;;;;5.27;83.77;98850.09;4983028;28;20758;-59
2022/12/22 09:36:14;;;;;;;8.90;4.05;;;;;;;5.29;83.68;98840.66;4985743;28;20073;-58
2022/12/22 09:38:41;;;;;;;14.40;3.65;;;;;;;5.37;84.28;98845.81;4982376;28;20066;-59
2022/12/22 09:43:44;;;;;;;8.32;2.67;;;;;;;5.49;83.78;98847.47;5018442;27;20406;-61
2022/12/22 09:46:30;;;;;;;7.82;2.78;;;;;;;5.50;82.95;98847.47;5012976;28;20045;-58
2022/12/22 09:48:57;;;;;;;12.32;3.42;;;;;;;5.53;83.56;98846.63;5007784;28;20042;-55
2022/12/22 09:51:25;;;;;;;8.32;2.58;;;;;;;5.55;83.83;98832.06;5010591;28;20172;-54
2022/12/22 09:53:57;;;;;;;8.02;2.50;;;;;;;5.53;84.45;98828.63;5009364;28;20123;-56
2022/12/22 09:56:26;;;;;;;8.15;3.28;;;;;;;5.59;84.05;98835.47;5009038;28;20057;-57
2022/12/22 09:58:52;;;;;;;7.88;3.22;;;;;;;5.61;82.83;98824.34;5006746;28;20096;-58
2022/12/22 10:04:28;;;;;;;9.65;4.03;;;;;;;5.67;83.52;98818.34;5046847;27;20397;-56
2022/12/22 10:09:32;;;;;;;6.78;2.45;;;;;;;5.75;84.23;98815.75;5089520;27;20436;-56
2022/12/22 10:12:19;;;;;;;5.63;1.83;;;;;;;5.78;83.82;98810.63;5016419;28;20056;-53
2022/12/22 10:14:48;;;;;;;5.32;2.33;;;;;;;5.78;83.35;98811.44;5011637;28;20045;-56
2022/12/22 10:19:53;;;;;;;11.98;3.20;;;;;;;6.24;82.74;98814.72;5090026;27;20413;-52
2022/12/22 10:24:59;;;;;;;4.07;1.65;;;;;;;6.08;83.08;98813.94;5042062;27;20394;-58
2022/12/22 10:27:30;;;;;;;2.65;1.23;;;;;;;6.09;83.71;98810.53;5014584;28;20066;-53
2022/12/22 10:30:18;;;;;;;2.63;1.15;;;;;;;6.10;83.65;98811.38;5010124;28;20453;-55
2022/12/22 10:38:26;;;;;;;2.65;1.17;;;;;;;6.19;84.11;98800.19;5052595;27;20412;-57
2022/12/22 10:40:57;;;;;;;1.60;0.57;;;;;;;6.21;83.96;98794.16;5033578;28;20139;-56
2022/12/22 10:43:33;;;;;;;1.75;0.90;;;;;;;6.20;84.59;98796.75;5032999;28;20122;-54
2022/12/22 10:46:02;;;;;;;1.65;0.60;;;;;;;6.15;83.89;98797.63;5032019;28;20427;-58
2022/12/22 10:48:34;;;;;;;2.63;1.05;;;;;;;6.22;84.06;98790.75;5045326;28;20049;-56
2022/12/22 10:51:04;;;;;;;2.20;0.93;;;;;;;6.25;84.98;98789.88;5059551;28;20044;-57
2022/12/22 11:01:36;;;;;;;6.57;2.95;;;;;;;6.47;85.46;98797.47;5084585;27;20400;-57
2022/12/22 11:04:24;;;;;;;3.97;2.92;;;;;;;6.42;85.20;98788.06;5067528;28;20737;-55
2022/12/22 11:06:53;;;;;;;7.00;3.10;;;;;;;6.46;85.39;98782.91;5093536;28;20047;-53
2022/12/22 11:09:20;;;;;;;5.07;1.95;;;;;;;6.43;84.33;98784.63;5095657;28;20454;-55
2022/12/22 11:12:25;;;;;;;6.55;3.33;;;;;;;6.45;85.27;98782.03;5096064;28;20058;-57
2022/12/22 11:17:56;;;;;;;7.30;3.15;;;;;;;6.45;84.43;98791.50;5024211;27;20396;-56
2022/12/22 11:23:29;;;;;;;10.93;3.60;;;;;;;6.49;84.90;98782.88;5080440;27;20400;-60
2022/12/22 11:29:40;;;;;;;11.68;2.75;;;;;;;6.55;84.70;98765.69;5078050;27;20399;-59
2022/12/22 11:32:35;;;;;;;13.15;3.70;;;;;;;6.62;83.70;98765.66;5059819;28;20417;-55
2022/12/22 12:02:54;;;;;;;9.65;2.83;;;;;;;7.00;84.25;98717.28;5026685;27;20399;-56
2022/12/22 12:05:50;;;;;;;10.80;2.25;;;;;;;7.04;84.98;98713.81;5014907;28;20077;-60
2022/12/22 12:08:45;;;;;;;6.38;1.85;;;;;;;7.09;84.69;98712.03;5042515;28;20454;-56
2022/12/22 12:11:39;;;;;;;7.78;2.13;;;;;;;7.17;84.98;98699.94;5013804;28;20100;-57
2022/12/22 12:20:07;;;;;;;7.18;3.20;;;;;;;7.40;84.83;98691.09;5051596;27;20398;-57
2022/12/22 12:33:41;;;;;;;11.45;1.90;;;;;;;7.65;83.73;98685.66;5048564;28;20831;-56
2022/12/22 12:36:20;;;;;;;8.90;2.60;;;;;;;7.69;83.80;98676.16;5022083;28;20064;-60
2022/12/22 12:44:26;;;;;;;7.88;3.13;;;;;;;7.86;84.22;98668.19;5026254;28;20413;-56
2022/12/22 12:47:02;;;;;;;9.52;3.08;;;;;;;7.90;83.73;98669.84;5001051;28;20049;-56
2022/12/22 12:52:13;;;;;;;9.82;3.38;;;;;;;8.01;83.67;98655.97;5091803;27;20889;-59
2022/12/22 12:54:41;;;;;;;11.20;3.10;;;;;;;8.08;83.85;98665.31;5079422;28;20037;-56
2022/12/22 12:59:48;;;;;;;9.85;4.20;;;;;;;8.17;84.85;98657.44;5020928;27;20948;-58
2022/12/22 13:08:15;;;;;;;10.05;3.05;;;;;;;8.25;84.30;98665.06;5020643;28;20413;-57
2022/12/22 13:10:45;;;;;;;8.52;3.03;;;;;;;8.30;84.75;98668.41;5006705;28;20048;-57
2022/12/22 13:18:45;;;;;;;7.85;2.45;;;;;;;8.41;84.42;98655.34;5109695;27;20421;-57
2022/12/22 13:21:24;;;;;;;27.30;8.80;;;;;;;8.46;83.75;98669.03;5073152;28;20127;-59
2022/12/22 13:24:23;;;;;;;10.30;4.22;;;;;;;8.48;84.66;98662.09;5068572;28;20061;-60
2022/12/22 13:26:54;;;;;;;11.35;4.93;;;;;;;8.54;84.34;98655.19;5072236;28;20037;-56
2022/12/22 13:32:02;;;;;;;6.25;2.28;;;;;;;8.61;84.29;98643.84;5036042;27;20413;-59
2022/12/22 13:34:58;;;;;;;10.93;2.60;;;;;;;8.60;84.05;98647.31;5016159;28;20054;-54
2022/12/22 13:37:47;;;;;;;5.72;2.22;;;;;;;8.63;84.05;98644.69;4998944;28;20105;-58
2022/12/22 13:40:21;;;;;;;6.00;2.38;;;;;;;8.65;84.22;98642.09;5033060;28;20041;-57
2022/12/22 13:45:45;;;;;;;6.05;2.05;;;;;;;8.64;84.13;98650.72;5059894;27;20408;-56
2022/12/22 13:56:11;;;;;;;9.55;3.30;;;;;;;9.03;83.99;98640.53;5025229;28;20407;-58
2022/12/22 13:58:44;;;;;;;9.20;2.20;;;;;;;8.89;84.82;98643.38;4999556;28;20493;-57
2022/12/22 14:03:50;;;;;;;6.10;1.75;;;;;;;8.88;85.29;98639.06;5064633;28;20924;-57
2022/12/22 14:06:37;;;;;;;6.35;1.75;;;;;;;8.86;84.79;98633.94;5021292;28;20505;-56
2022/12/22 14:09:23;;;;;;;5.47;3.20;;;;;;;8.89;85.04;98634.78;5033761;28;20878;-56
2022/12/22 14:14:30;;;;;;;4.78;1.88;;;;;;;8.96;84.36;98621.75;5026408;28;20418;-57
2022/12/22 14:16:59;;;;;;;6.85;3.10;;;;;;;8.98;84.70;98630.28;5003210;28;20077;-58
2022/12/22 14:19:32;;;;;;;10.13;3.45;;;;;;;9.02;84.87;98630.22;5006346;28;20520;-57
2022/12/22 14:24:43;;;;;;;9.63;4.82;;;;;;;9.07;84.94;98623.25;5052234;28;21133;-58
2022/12/22 14:27:20;;;;;;;13.13;4.40;;;;;;;9.11;84.75;98627.47;5014787;28;20074;-58
2022/12/22 14:29:47;;;;;;;9.43;4.75;;;;;;;9.15;84.89;98631.69;5024848;28;20677;-56
2022/12/22 14:32:35;;;;;;;11.50;6.15;;;;;;;9.15;84.10;98631.69;5020520;28;20603;-57
2022/12/22 14:35:02;;;;;;;8.63;4.15;;;;;;;9.18;85.28;98634.22;5025029;28;20647;-58
2022/12/22 14:37:29;;;;;;;11.20;4.43;;;;;;;9.21;84.87;98630.72;5013593;28;20141;-58
2022/12/22 14:39:58;;;;;;;12.02;4.32;;;;;;;9.22;84.90;98633.28;5017096;28;20693;-57
2022/12/22 14:42:25;;;;;;;13.10;5.18;;;;;;;9.25;84.73;98637.50;5015005;28;20054;-59
2022/12/22 14:44:52;;;;;;;14.23;5.95;;;;;;;9.25;84.51;98640.97;5020914;28;20081;-58
2022/12/22 14:47:24;;;;;;;29.23;9.93;;;;;;;9.28;84.79;98636.63;5016237;28;20123;-56
2022/12/22 14:49:54;;;;;;;11.90;5.43;;;;;;;9.31;84.64;98636.53;5019935;28;20042;-58
2022/12/22 14:55:04;;;;;;;13.30;5.85;;;;;;;9.32;84.91;98649.44;5091339;27;20405;-60
2022/12/22 14:57:36;;;;;;;12.95;5.13;;;;;;;9.34;84.81;98646.81;5084667;28;20068;-60
2022/12/22 15:00:26;;;;;;;8.43;3.70;;;;;;;9.36;84.58;98645.06;5099999;28;20051;-56
2022/12/22 15:02:56;;;;;;;13.77;4.40;;;;;;;9.35;84.51;98649.38;5097588;28;20063;-58
2022/12/22 15:05:35;;;;;;;13.20;4.80;;;;;;;9.35;84.74;98639.03;5077413;28;20109;-60
2022/12/22 15:08:03;;;;;;;12.27;4.70;;;;;;;9.38;84.65;98643.28;5072731;28;20385;-57
2022/12/22 15:10:41;;;;;;;10.35;4.25;;;;;;;9.37;84.04;98633.84;5078276;27;20098;-57
2022/12/22 15:13:16;;;;;;;18.75;6.20;;;;;;;9.40;84.66;98628.63;5073180;28;20044;-55
2022/12/22 15:15:43;;;;;;;12.43;5.38;;;;;;;9.39;84.43;98630.34;5073394;28;20131;-56
2022/12/22 15:18:13;;;;;;;19.58;7.60;;;;;;;9.43;84.17;98635.47;5074737;28;20471;-57
2022/12/22 15:20:40;;;;;;;17.50;7.40;;;;;;;9.44;84.67;98631.97;5099739;28;20039;-58
2022/12/22 15:23:11;;;;;;;15.23;6.63;;;;;;;9.45;85.01;98634.53;5076753;28;20040;-59
2022/12/22 15:25:39;;;;;;;10.15;4.32;;;;;;;9.47;84.63;98632.78;5072623;28;20133;-56
2022/12/22 15:28:05;;;;;;;14.55;4.80;;;;;;;9.47;84.89;98637.09;5076196;28;20064;-59
2022/12/22 15:30:32;;;;;;;21.45;8.27;;;;;;;9.48;84.60;98638.78;5077320;28;20056;-58
2022/12/22 15:32:59;;;;;;;18.42;7.53;;;;;;;9.49;84.26;98641.34;5076712;28;20052;-54
2022/12/22 15:38:10;;;;;;;38.63;12.93;;;;;;;9.50;84.25;98647.38;5033860;28;20403;-59
2022/12/22 15:40:37;;;;;;;29.67;8.73;;;;;;;9.50;84.41;98653.38;5019392;28;20104;-55
2022/12/22 15:43:04;;;;;;;50.25;17.50;;;;;;;9.50;84.16;98648.19;5020221;28;20049;-57
2022/12/22 15:45:31;;;;;;;53.80;21.63;;;;;;;9.50;85.05;98653.38;5015637;28;20053;-57
2022/12/22 15:47:58;;;;;;;51.45;20.27;;;;;;;9.50;84.53;98653.38;5025273;28;20080;-57
2022/12/22 15:50:30;;;;;;;41.28;17.02;;;;;;;9.49;84.53;98654.25;5019044;28;20088;-57
2022/12/22 15:53:07;;;;;;;28.25;12.13;;;;;;;9.48;84.44;98660.31;5011414;28;20044;-59
2022/12/22 15:55:41;;;;;;;23.95;9.30;;;;;;;9.48;84.44;98655.16;5020731;28;20151;-56
2022/12/22 15:58:12;;;;;;;26.52;9.02;;;;;;;9.48;84.73;98652.56;5020623;28;20123;-56
2022/12/22 16:00:38;;;;;;;22.63;8.30;;;;;;;9.47;84.76;98653.47;5017900;28;20046;-58
2022/12/22 16:03:06;;;;;;;29.05;10.13;;;;;;;9.48;84.38;98655.16;5018450;28;20140;-56
2022/12/22 16:05:33;;;;;;;29.70;7.20;;;;;;;9.49;84.39;98651.69;5020399;28;20042;-57
2022/12/22 16:08:00;;;;;;;23.80;7.68;;;;;;;9.48;84.63;98649.97;5019128;28;20461;-59
2022/12/22 16:10:29;;;;;;;21.75;5.82;;;;;;;9.49;84.45;98650.84;5017400;28;20056;-59
2022/12/22 16:13:01;;;;;;;23.08;7.25;;;;;;;9.49;84.67;98654.25;5014394;28;20058;-57
2022/12/22 16:15:32;;;;;;;25.13;6.45;;;;;;;9.47;84.12;98645.69;5010116;28;20699;-57
2022/12/22 16:18:00;;;;;;;17.63;6.70;;;;;;;9.49;84.35;98656.84;5012215;28;20042;-58
2022/12/22 16:20:30;;;;;;;25.23;8.60;;;;;;;9.47;84.09;98661.22;5008628;28;20053;-56
2022/12/22 16:23:05;;;;;;;19.17;7.00;;;;;;;9.49;84.58;98662.00;5011232;28;20046;-57
2022/12/22 16:25:36;;;;;;;17.20;5.90;;;;;;;9.48;84.63;98660.31;5005537;28;20107;-56
2022/12/22 16:28:04;;;;;;;18.85;7.00;;;;;;;9.50;84.62;98666.28;5018697;28;20077;-58
2022/12/22 16:30:33;;;;;;;19.85;6.15;;;;;;;9.49;84.36;98667.19;5010682;28;20107;-59
2022/12/22 16:32:59;;;;;;;18.10;5.68;;;;;;;9.51;84.45;98668.03;5009781;28;20080;-58
2022/12/22 16:35:28;;;;;;;19.90;6.15;;;;;;;9.52;84.75;98677.47;5018430;28;20096;-61
2022/12/22 16:37:57;;;;;;;21.88;8.10;;;;;;;9.54;84.34;98679.16;5018053;28;20085;-57
2022/12/22 16:40:25;;;;;;;20.88;8.25;;;;;;;9.52;84.33;98682.63;5017859;28;20151;-61
2022/12/22 16:43:13;;;;;;;24.75;8.32;;;;;;;9.51;84.64;98691.28;5016681;28;20056;-58
2022/12/22 16:45:57;;;;;;;25.65;9.50;;;;;;;9.52;84.03;98705.91;5012546;28;20091;-55
2022/12/22 16:48:33;;;;;;;24.30;7.82;;;;;;;9.52;83.90;98708.47;5007817;28;20081;-57
2022/12/22 16:51:00;;;;;;;25.90;8.45;;;;;;;9.54;84.38;98710.19;4996939;28;20126;-57
2022/12/22 16:53:27;;;;;;;77.43;22.98;;;;;;;9.55;84.22;98711.91;4999459;28;20046;-57
2022/12/22 16:55:54;;;;;;;114.90;32.58;;;;;;;9.56;84.24;98708.44;4999594;28;20057;-57
2022/12/22 16:58:21;;;;;;;97.68;28.33;;;;;;;9.57;83.92;98712.72;4995304;28;21801;-58
2022/12/22 17:00:48;;;;;;;58.83;19.17;;;;;;;9.57;84.21;98704.94;5002664;28;20434;-58
2022/12/22 17:03:21;;;;;;;43.47;14.02;;;;;;;9.58;84.14;98711.81;5006732;28;20104;-55
2022/12/22 17:05:51;;;;;;;22.13;8.25;;;;;;;9.57;84.13;98708.41;5006056;28;20041;-58
2022/12/22 17:10:56;;;;;;;28.95;10.73;;;;;;;9.59;84.29;98713.53;5035024;27;20394;-59
2022/12/22 17:13:23;;;;;;;22.65;7.00;;;;;;;9.58;84.00;98712.69;5022295;28;20046;-57
2022/12/22 17:15:50;;;;;;;23.95;8.05;;;;;;;9.61;83.98;98722.09;5023702;28;20073;-58
2022/12/22 17:18:20;;;;;;;20.70;7.82;;;;;;;9.61;84.27;98719.50;5020742;28;20084;-54
2022/12/22 17:20:49;;;;;;;26.00;9.45;;;;;;;9.61;84.81;98722.09;5003168;28;20105;-57
2022/12/22 17:26:07;;;;;;;40.97;16.77;;;;;;;9.63;84.05;98720.34;5035620;27;20413;-57
2022/12/22 17:28:35;;;;;;;55.35;27.05;;;;;;;9.62;84.29;98723.78;5024922;28;20054;-60
2022/12/22 17:31:02;;;;;;;29.25;11.70;;;;;;;9.64;84.30;98732.38;5025039;28;20038;-59
2022/12/22 17:33:28;;;;;;;26.85;9.15;;;;;;;9.63;84.29;98728.09;5023030;28;20108;-57
2022/12/22 17:35:55;;;;;;;32.97;10.90;;;;;;;9.64;84.57;98727.22;5023642;28;20045;-59
2022/12/22 17:38:25;;;;;;;24.45;8.15;;;;;;;9.66;84.35;98740.94;5023359;28;20049;-55
2022/12/22 17:40:52;;;;;;;26.48;9.23;;;;;;;9.65;84.95;98736.66;5031023;28;20096;-54
2022/12/22 17:43:20;;;;;;;23.63;8.45;;;;;;;9.65;84.05;98747.00;5024828;28;20077;-59
2022/12/22 17:45:47;;;;;;;32.47;11.02;;;;;;;9.65;84.37;98744.41;5027055;28;20110;-59
2022/12/22 17:48:15;;;;;;;25.40;9.88;;;;;;;9.68;84.38;98748.69;5021349;28;20102;-60